Time;durP1;ratioP1;P1;durP2;ratioP2;P2;SDS_P1;SDS_P2;PMS_P1;PMS_P2;Temp;Humidity;BMP_temperature;BMP_pressure;BME280_temperature;BME280_humidity;BME280_pressure;Samples;Min_cycle;Max_cycle;Signal;HPM_P1;HPM_P2
2021/08/26 00:07:29;;;;;;;5.65;1.88;;;;;;;17.86;75.05;101900.75;4988421;28;20080;-48
2021/08/26 00:09:55;;;;;;;7.30;1.70;;;;;;;17.78;75.46;101893.72;4987519;28;20113;-49
2021/08/26 00:12:21;;;;;;;5.43;2.00;;;;;;;17.70;75.70;101891.94;4985147;28;20057;-47
2021/08/26 00:14:46;;;;;;;5.03;2.10;;;;;;;17.65;75.83;101884.03;4988140;28;20026;-48
2021/08/26 00:17:12;;;;;;;6.88;2.10;;;;;;;17.62;75.75;101883.16;4987428;28;20030;-49
2021/08/26 00:19:38;;;;;;;7.85;2.05;;;;;;;17.60;75.92;101895.44;4983287;28;20537;-51
2021/08/26 00:22:04;;;;;;;12.57;2.60;;;;;;;17.55;75.67;101887.53;4989296;28;20044;-51
2021/08/26 00:24:30;;;;;;;5.07;2.10;;;;;;;17.54;75.54;101880.47;4988488;28;20040;-47
2021/08/26 00:26:55;;;;;;;7.97;2.30;;;;;;;17.53;75.69;101877.84;4984180;28;20022;-46
2021/08/26 00:29:20;;;;;;;7.75;2.17;;;;;;;17.66;75.36;101879.63;5000704;28;20549;-47
2021/08/26 00:31:46;;;;;;;10.25;2.53;;;;;;;17.62;74.13;101877.88;4983188;28;20045;-49
2021/08/26 00:34:11;;;;;;;8.45;2.28;;;;;;;17.86;73.48;101883.16;4984120;28;20698;-49
2021/08/26 00:36:36;;;;;;;9.52;2.50;;;;;;;17.97;73.28;101877.88;4985103;28;20026;-48
2021/08/26 00:39:02;;;;;;;8.45;2.53;;;;;;;18.01;73.14;101877.84;4983924;28;20045;-47
2021/08/26 00:41:27;;;;;;;8.77;2.45;;;;;;;18.03;72.59;101876.09;4981564;28;20049;-50
2021/08/26 00:43:53;;;;;;;9.43;2.65;;;;;;;18.12;71.69;101868.16;4987252;28;20125;-48
2021/08/26 00:46:18;;;;;;;12.13;2.95;;;;;;;18.13;70.02;101866.41;4984243;28;20451;-49
2021/08/26 00:48:44;;;;;;;11.40;2.95;;;;;;;18.10;69.40;101874.34;4985582;28;20261;-50
2021/08/26 00:51:10;;;;;;;14.57;3.50;;;;;;;18.22;69.26;101866.41;4980732;28;22026;-48
2021/08/26 00:53:35;;;;;;;9.77;2.90;;;;;;;18.16;68.08;101861.13;4983019;28;20026;-49
2021/08/26 00:56:00;;;;;;;9.25;3.03;;;;;;;18.32;68.69;101854.91;4979843;28;20100;-49
2021/08/26 00:58:28;;;;;;;12.20;3.08;;;;;;;18.31;68.76;101860.19;4983524;28;20033;-48
2021/08/26 01:00:59;;;;;;;10.60;3.10;;;;;;;18.22;67.32;101867.28;4978525;28;20041;-50
2021/08/26 01:03:28;;;;;;;16.88;3.15;;;;;;;18.12;65.50;101868.16;4979990;28;20034;-46
2021/08/26 01:05:55;;;;;;;12.32;2.92;;;;;;;18.24;66.55;101857.56;4986933;28;20042;-48
2021/08/26 01:08:22;;;;;;;13.38;3.40;;;;;;;18.25;65.39;101850.53;4983737;28;20031;-49
2021/08/26 01:10:51;;;;;;;15.75;3.28;;;;;;;18.21;65.91;101844.41;4983714;28;20207;-47
2021/08/26 01:13:17;;;;;;;13.38;3.30;;;;;;;18.32;66.45;101854.91;4979276;28;20026;-47
2021/08/26 01:16:08;;;;;;;11.93;3.50;;;;;;;18.29;66.23;101849.66;4984428;28;20057;-48
2021/08/26 01:18:44;;;;;;;9.88;3.20;;;;;;;18.29;65.51;101838.22;4980293;28;20299;-48
2021/08/26 01:21:19;;;;;;;13.05;3.28;;;;;;;18.25;65.62;101846.13;4985971;28;20057;-47
2021/08/26 01:23:51;;;;;;;12.70;2.92;;;;;;;18.33;65.50;101843.47;4984658;28;20026;-48
2021/08/26 01:26:22;;;;;;;13.30;3.35;;;;;;;18.15;65.24;101846.19;4982442;28;20034;-49
2021/08/26 01:28:51;;;;;;;11.68;3.20;;;;;;;18.12;64.27;101843.53;4978883;28;20651;-47
2021/08/26 01:31:17;;;;;;;11.70;3.13;;;;;;;18.14;63.43;101845.28;4981851;28;20329;-48
2021/08/26 01:33:45;;;;;;;16.48;3.30;;;;;;;18.10;64.34;101837.41;4984929;28;20176;-48
2021/08/26 01:36:11;;;;;;;10.43;3.05;;;;;;;18.20;63.88;101840.00;4989244;28;20029;-51
2021/08/26 01:38:38;;;;;;;10.68;3.20;;;;;;;18.13;64.67;101835.63;4986449;28;21479;-52
2021/08/26 01:41:04;;;;;;;12.52;3.13;;;;;;;18.19;64.15;101834.72;4986704;28;20042;-50
2021/08/26 01:43:31;;;;;;;14.10;3.63;;;;;;;18.22;64.72;101842.66;4983916;28;20061;-51
2021/08/26 01:45:57;;;;;;;11.27;3.33;;;;;;;18.16;64.62;101829.47;4984274;28;20510;-49
2021/08/26 01:48:22;;;;;;;13.00;3.72;;;;;;;18.14;64.56;101820.66;4984408;28;20498;-48
2021/08/26 01:50:48;;;;;;;11.95;3.60;;;;;;;18.04;64.77;101825.09;4984595;28;20872;-49
2021/08/26 01:53:14;;;;;;;13.68;3.60;;;;;;;17.91;64.64;101823.34;4984123;28;20030;-49
2021/08/26 01:55:40;;;;;;;17.08;4.38;;;;;;;18.13;64.40;101821.53;4998290;28;20382;-48
2021/08/26 01:58:07;;;;;;;16.50;3.92;;;;;;;18.16;65.32;101817.16;4982477;28;20484;-51
2021/08/26 02:00:32;;;;;;;18.17;4.30;;;;;;;18.06;63.88;101822.44;4982824;28;20706;-47
2021/08/26 02:02:58;;;;;;;15.75;4.15;;;;;;;18.10;63.67;101826.84;4984138;28;20027;-51
2021/08/26 02:05:23;;;;;;;19.33;4.63;;;;;;;18.23;63.70;101820.66;4985456;28;20042;-48
2021/08/26 02:07:50;;;;;;;14.63;4.30;;;;;;;18.13;63.28;101814.50;4983688;28;20033;-49
2021/08/26 02:10:15;;;;;;;17.70;4.30;;;;;;;18.20;62.39;101812.72;4979547;28;20029;-47
2021/08/26 02:12:41;;;;;;;20.73;4.40;;;;;;;18.14;61.68;101821.53;4982833;28;20415;-48
2021/08/26 02:15:07;;;;;;;14.95;3.97;;;;;;;17.90;60.61;101820.72;4982429;28;20030;-50
2021/08/26 02:17:33;;;;;;;13.25;3.92;;;;;;;18.05;60.23;101816.28;4986622;28;20052;-50
2021/08/26 02:19:58;;;;;;;13.75;3.60;;;;;;;18.16;60.06;101814.50;4984820;28;20475;-49
2021/08/26 02:22:23;;;;;;;14.43;4.32;;;;;;;18.03;60.49;101823.34;4984979;28;20049;-49
2021/08/26 02:24:49;;;;;;;19.60;3.92;;;;;;;18.19;60.77;101826.78;4981578;28;20095;-49
2021/08/26 02:27:14;;;;;;;16.73;3.70;;;;;;;18.16;61.34;101818.91;4985938;28;20498;-48
2021/08/26 02:29:40;;;;;;;15.32;3.47;;;;;;;18.00;60.86;101803.97;4981477;28;20029;-50
2021/08/26 02:32:05;;;;;;;15.13;3.55;;;;;;;17.79;61.08;101810.19;4982558;28;20444;-49
2021/08/26 02:34:30;;;;;;;16.55;3.55;;;;;;;17.93;61.51;101821.56;4981263;28;20150;-51
2021/08/26 02:36:56;;;;;;;14.82;3.85;;;;;;;17.87;61.77;101815.47;4983164;28;20240;-50
2021/08/26 02:39:21;;;;;;;16.67;3.63;;;;;;;18.08;61.79;101818.03;4978177;28;20119;-48
2021/08/26 02:41:46;;;;;;;14.70;3.45;;;;;;;18.06;61.53;101817.16;4986666;28;20530;-49
2021/08/26 02:44:12;;;;;;;13.82;3.58;;;;;;;17.74;61.45;101815.47;4984511;28;20062;-48
2021/08/26 02:46:37;;;;;;;18.42;4.00;;;;;;;17.81;62.05;101818.94;4983132;28;20075;-47
2021/08/26 02:49:03;;;;;;;12.05;3.25;;;;;;;18.02;61.77;101818.94;4985692;28;20053;-47
2021/08/26 02:51:28;;;;;;;12.20;3.45;;;;;;;17.82;61.66;101813.69;4978580;28;20494;-47
2021/08/26 02:53:54;;;;;;;15.18;3.50;;;;;;;17.68;61.54;101810.22;4984593;28;20087;-49
2021/08/26 02:56:19;;;;;;;14.95;3.80;;;;;;;17.80;60.85;101810.19;4980912;28;20444;-47
2021/08/26 02:58:44;;;;;;;11.43;3.30;;;;;;;17.78;61.49;101809.31;4982621;28;20057;-48
2021/08/26 03:01:10;;;;;;;12.32;3.03;;;;;;;17.91;61.50;101814.56;4985207;28;20152;-49
2021/08/26 03:03:36;;;;;;;13.48;3.47;;;;;;;17.94;61.61;101820.69;4984493;28;20179;-49
2021/08/26 03:06:01;;;;;;;13.57;3.47;;;;;;;18.00;61.89;101811.88;4981942;28;20489;-50
2021/08/26 03:08:27;;;;;;;14.43;3.50;;;;;;;17.99;62.16;101810.16;4985104;28;21941;-47
2021/08/26 03:10:52;;;;;;;14.85;3.35;;;;;;;17.90;61.49;101804.88;4985750;28;21679;-49
2021/08/26 03:13:17;;;;;;;15.50;3.15;;;;;;;17.96;60.72;101802.22;4982622;28;20505;-47
2021/08/26 03:15:43;;;;;;;9.77;2.92;;;;;;;17.95;62.42;101804.00;4985375;28;20026;-48
2021/08/26 03:18:09;;;;;;;12.18;3.22;;;;;;;17.93;61.86;101807.53;4985414;28;20087;-52
2021/08/26 03:20:34;;;;;;;14.80;3.72;;;;;;;17.89;62.71;101803.13;4986918;28;20049;-48
2021/08/26 03:23:00;;;;;;;15.88;3.30;;;;;;;17.84;63.29;101806.66;4984220;28;20034;-48
2021/08/26 03:25:26;;;;;;;14.40;3.30;;;;;;;17.83;61.80;101801.38;4988622;28;20049;-49
2021/08/26 03:27:52;;;;;;;12.43;3.20;;;;;;;17.83;62.39;101804.00;4988188;28;20029;-51
2021/08/26 03:30:17;;;;;;;13.32;3.50;;;;;;;17.80;63.13;101796.13;4986579;28;20122;-48
2021/08/26 03:32:43;;;;;;;10.15;2.70;;;;;;;17.80;61.65;101804.03;4985015;28;20026;-48
2021/08/26 03:35:08;;;;;;;15.55;2.88;;;;;;;17.67;61.20;101797.91;4980874;28;20112;-46
2021/08/26 03:37:34;;;;;;;11.73;2.88;;;;;;;17.76;63.08;101794.34;4986880;28;20270;-49
2021/08/26 03:39:59;;;;;;;14.13;2.88;;;;;;;17.81;62.69;101796.09;4989666;28;20522;-47
2021/08/26 03:42:24;;;;;;;9.73;2.70;;;;;;;17.82;62.96;101796.97;4984561;28;20498;-48
2021/08/26 03:44:50;;;;;;;16.80;3.58;;;;;;;17.77;63.56;101796.13;4986331;28;20148;-47
2021/08/26 03:47:15;;;;;;;16.27;2.97;;;;;;;17.84;62.22;101790.84;4985070;28;20117;-47
2021/08/26 03:49:41;;;;;;;16.17;2.97;;;;;;;17.72;62.24;101801.41;4984357;28;20029;-50
2021/08/26 03:52:06;;;;;;;13.38;3.30;;;;;;;17.87;62.73;101797.84;4984815;28;20557;-49
2021/08/26 03:54:32;;;;;;;11.50;3.30;;;;;;;17.86;62.74;101792.59;4986366;28;20084;-46
2021/08/26 03:56:57;;;;;;;16.23;3.10;;;;;;;17.87;63.49;101791.72;4989527;28;20145;-48
2021/08/26 03:59:22;;;;;;;13.57;3.20;;;;;;;17.81;63.19;101790.81;4982159;28;20464;-49
2021/08/26 04:01:48;;;;;;;12.35;3.35;;;;;;;17.87;63.57;101797.00;4984614;28;20066;-47
2021/08/26 04:04:13;;;;;;;13.23;3.22;;;;;;;17.89;63.59;101797.84;4980452;28;20103;-49
2021/08/26 04:06:39;;;;;;;16.13;3.60;;;;;;;17.90;64.50;101796.97;4984187;28;20363;-48
2021/08/26 04:09:04;;;;;;;17.10;3.25;;;;;;;17.94;64.84;101802.22;4989047;28;20041;-49
2021/08/26 04:11:30;;;;;;;19.40;3.70;;;;;;;17.66;65.31;101795.25;4984848;28;20121;-48
2021/08/26 04:13:55;;;;;;;11.00;3.40;;;;;;;17.78;66.07;101796.13;4980721;28;20085;-46
2021/08/26 04:16:20;;;;;;;17.70;3.88;;;;;;;17.81;65.55;101795.22;4983909;28;20405;-51
2021/08/26 04:18:46;;;;;;;12.48;3.28;;;;;;;17.83;65.83;101798.75;4988887;28;20108;-47
2021/08/26 04:21:11;;;;;;;19.88;3.53;;;;;;;17.65;65.57;101794.38;4986198;28;20045;-48
2021/08/26 04:23:37;;;;;;;18.17;3.88;;;;;;;17.64;65.01;101791.72;4982317;28;20018;-48
2021/08/26 04:26:02;;;;;;;16.17;3.40;;;;;;;17.69;64.79;101790.84;4986608;28;20056;-45
2021/08/26 04:28:27;;;;;;;17.65;3.35;;;;;;;17.65;64.83;101793.50;4982662;28;20274;-46
2021/08/26 04:30:53;;;;;;;18.77;3.40;;;;;;;17.66;64.73;101792.63;4987389;28;20516;-47
2021/08/26 04:33:18;;;;;;;14.15;3.25;;;;;;;17.64;64.73;101795.25;4987003;28;20030;-48
2021/08/26 04:35:43;;;;;;;13.60;3.20;;;;;;;17.75;65.41;101787.31;4984627;28;20466;-50
2021/08/26 04:38:09;;;;;;;14.43;3.30;;;;;;;17.74;64.05;101783.81;4984421;28;20033;-46
2021/08/26 04:40:35;;;;;;;15.57;3.17;;;;;;;17.61;64.11;101781.19;4985138;28;20049;-48
2021/08/26 04:43:01;;;;;;;11.85;2.90;;;;;;;17.73;63.50;101776.78;4987263;28;20040;-47
2021/08/26 04:45:26;;;;;;;15.55;3.38;;;;;;;17.74;62.85;101783.81;4980003;28;20738;-49
2021/08/26 04:47:51;;;;;;;13.45;2.67;;;;;;;17.77;60.75;101770.63;4988602;28;20025;-47
2021/08/26 04:50:17;;;;;;;10.60;2.40;;;;;;;17.78;58.70;101784.69;4983751;28;20101;-48
2021/08/26 04:52:42;;;;;;;11.48;2.50;;;;;;;17.71;58.73;101782.94;4985608;28;20034;-49
2021/08/26 04:55:08;;;;;;;9.50;2.35;;;;;;;17.74;57.63;101777.66;4984364;28;20288;-48
2021/08/26 04:57:34;;;;;;;9.73;2.20;;;;;;;17.87;57.29;101770.63;4983902;28;20712;-46
2021/08/26 04:59:59;;;;;;;9.55;2.10;;;;;;;17.95;58.90;101779.38;4982671;28;20028;-49
2021/08/26 05:02:24;;;;;;;10.10;2.20;;;;;;;17.90;58.95;101778.50;4984662;28;20069;-52
2021/08/26 05:04:50;;;;;;;10.15;2.38;;;;;;;17.91;58.72;101775.00;4984657;28;20033;-48
2021/08/26 05:07:15;;;;;;;12.85;2.60;;;;;;;17.97;61.35;101767.94;5004080;28;20104;-48
2021/08/26 05:09:41;;;;;;;10.23;2.20;;;;;;;17.97;59.90;101767.94;4983876;28;20041;-48
2021/08/26 05:12:08;;;;;;;12.77;2.70;;;;;;;17.93;59.24;101775.88;4981380;28;20026;-47
2021/08/26 05:14:33;;;;;;;11.13;2.30;;;;;;;17.96;60.41;101776.72;4986889;28;21358;-48
2021/08/26 05:16:58;;;;;;;9.02;2.40;;;;;;;17.88;60.86;101774.97;4984320;28;20199;-49
2021/08/26 05:19:25;;;;;;;15.85;2.78;;;;;;;18.02;59.58;101779.34;4981294;28;20370;-48
2021/08/26 05:21:50;;;;;;;11.25;2.35;;;;;;;18.06;60.12;101780.22;4985215;28;20036;-48
2021/08/26 05:24:16;;;;;;;11.15;2.60;;;;;;;18.12;61.08;101778.44;4984711;28;20450;-49
2021/08/26 05:26:41;;;;;;;14.43;2.83;;;;;;;18.15;60.70;101775.78;4982746;28;20487;-48
2021/08/26 05:29:07;;;;;;;15.98;2.88;;;;;;;18.21;60.61;101780.16;4980351;28;20033;-48
2021/08/26 05:31:32;;;;;;;11.20;2.75;;;;;;;18.19;59.89;101776.66;4987998;28;20033;-50
2021/08/26 05:33:58;;;;;;;12.85;2.75;;;;;;;18.20;59.29;101779.28;4985334;28;20732;-49
2021/08/26 05:36:23;;;;;;;12.63;2.30;;;;;;;18.21;57.76;101780.16;4979041;28;20032;-48
2021/08/26 05:38:49;;;;;;;10.20;2.10;;;;;;;18.30;58.70;101769.56;4982904;28;20037;-49
2021/08/26 05:41:14;;;;;;;10.63;2.22;;;;;;;18.33;59.14;101774.84;4985554;28;20434;-48
2021/08/26 05:43:40;;;;;;;10.30;1.98;;;;;;;18.18;58.13;101759.06;4984328;28;20208;-48
2021/08/26 05:46:06;;;;;;;9.60;1.98;;;;;;;18.25;57.94;101774.00;4982891;28;20069;-48
2021/08/26 05:48:32;;;;;;;7.63;2.15;;;;;;;18.36;58.80;101768.69;4983150;28;20033;-53
2021/08/26 05:50:57;;;;;;;6.82;1.90;;;;;;;18.40;58.24;101770.41;4985481;28;20037;-49
2021/08/26 05:53:22;;;;;;;9.52;1.92;;;;;;;18.44;58.43;101769.50;4979954;28;20026;-51
2021/08/26 05:55:48;;;;;;;8.70;1.95;;;;;;;18.42;58.34;101769.50;4984025;28;20743;-57
2021/08/26 05:58:14;;;;;;;10.20;1.75;;;;;;;18.45;58.39;101772.16;4983191;28;20053;-51
2021/08/26 06:00:39;;;;;;;10.52;2.03;;;;;;;18.55;58.59;101771.25;4982581;28;20532;-50
2021/08/26 06:03:04;;;;;;;9.77;2.10;;;;;;;18.57;58.54;101773.88;4983174;28;20121;-50
2021/08/26 06:05:30;;;;;;;10.23;2.10;;;;;;;18.63;59.20;101774.72;4981840;28;20123;-48
2021/08/26 06:07:55;;;;;;;7.78;2.00;;;;;;;18.69;60.02;101772.94;4983064;28;20497;-47
2021/08/26 06:10:21;;;;;;;7.28;2.05;;;;;;;18.80;58.56;101764.06;4986252;28;20533;-50
2021/08/26 06:12:46;;;;;;;8.63;2.40;;;;;;;18.80;58.72;101758.78;4981458;28;20030;-47
2021/08/26 06:15:12;;;;;;;7.57;2.05;;;;;;;18.80;59.82;101771.09;4981889;28;21093;-48
2021/08/26 06:17:38;;;;;;;10.68;1.95;;;;;;;18.75;59.26;101775.53;4977649;28;20478;-48
2021/08/26 06:20:05;;;;;;;10.90;2.30;;;;;;;18.66;59.17;101776.50;4983069;28;20505;-47
2021/08/26 06:22:30;;;;;;;6.90;1.73;;;;;;;18.58;58.82;101781.81;4981077;28;20037;-47
2021/08/26 06:24:55;;;;;;;7.18;1.80;;;;;;;18.61;58.81;101789.69;4984011;28;20030;-50
2021/08/26 06:27:21;;;;;;;7.80;2.00;;;;;;;18.26;58.73;101802.16;4981950;28;20114;-51
2021/08/26 06:29:47;;;;;;;9.38;2.25;;;;;;;17.94;61.12;101788.16;4982154;28;20034;-48
2021/08/26 06:32:13;;;;;;;12.52;2.30;;;;;;;17.59;61.92;101789.06;4982467;28;20065;-46
2021/08/26 06:34:38;;;;;;;11.10;2.05;;;;;;;17.92;62.98;101776.75;4982613;28;20026;-48
2021/08/26 06:37:04;;;;;;;9.52;2.15;;;;;;;18.14;62.03;101776.69;4982836;28;20099;-51
2021/08/26 06:39:29;;;;;;;8.38;2.15;;;;;;;17.84;62.16;101772.38;4982994;28;20045;-50
2021/08/26 06:41:55;;;;;;;12.43;2.30;;;;;;;17.95;62.28;101774.09;4982028;28;20475;-47
2021/08/26 06:44:21;;;;;;;14.52;2.42;;;;;;;18.12;62.19;101773.16;4989073;28;20159;-53
2021/08/26 06:46:47;;;;;;;10.23;2.30;;;;;;;18.14;62.03;101784.59;4986619;28;20034;-50
2021/08/26 06:49:12;;;;;;;11.98;2.42;;;;;;;17.89;62.54;101790.81;4982342;28;20375;-49
2021/08/26 06:51:37;;;;;;;8.70;2.03;;;;;;;18.15;61.77;101794.28;4989448;28;20478;-48
2021/08/26 06:54:03;;;;;;;7.03;1.88;;;;;;;18.40;63.08;101792.41;4985889;28;20478;-48
2021/08/26 06:56:28;;;;;;;14.18;2.40;;;;;;;18.31;61.83;101800.38;4984771;28;20721;-50
2021/08/26 06:58:53;;;;;;;9.90;2.20;;;;;;;18.58;61.06;101787.09;4985134;28;20065;-48
2021/08/26 07:01:19;;;;;;;10.07;1.90;;;;;;;18.81;59.95;101784.31;4988101;28;20022;-48
2021/08/26 07:03:44;;;;;;;11.15;2.53;;;;;;;19.19;58.76;101785.81;4986943;28;20807;-49
2021/08/26 07:06:09;;;;;;;9.57;2.20;;;;;;;19.40;59.46;101783.00;4987017;28;20484;-48
2021/08/26 07:08:35;;;;;;;10.23;2.22;;;;;;;19.54;58.00;101789.06;4986946;28;20128;-47
2021/08/26 07:11:00;;;;;;;10.75;1.95;;;;;;;19.54;57.71;101788.19;4986305;28;20754;-48
2021/08/26 07:13:26;;;;;;;10.02;2.10;;;;;;;19.57;58.23;101783.78;4984631;28;20116;-51
2021/08/26 07:15:51;;;;;;;11.77;2.33;;;;;;;19.23;57.80;101785.78;4984446;28;20034;-49
2021/08/26 07:18:18;;;;;;;11.23;2.15;;;;;;;18.34;61.62;101800.38;4985202;28;20042;-50
2021/08/26 07:20:44;;;;;;;8.85;2.00;;;;;;;17.88;63.51;101794.31;4986222;28;20105;-46
2021/08/26 07:23:10;;;;;;;9.95;2.05;;;;;;;17.30;65.68;101811.94;4987015;28;20433;-49
2021/08/26 07:25:35;;;;;;;8.68;1.85;;;;;;;18.21;64.07;101819.75;4980444;28;20440;-46
2021/08/26 07:28:03;;;;;;;8.45;2.10;;;;;;;17.59;67.45;101822.47;4986545;28;20494;-48
2021/08/26 07:30:28;;;;;;;7.15;1.40;;;;;;;17.70;66.86;101815.47;4985092;28;20672;-47
2021/08/26 07:32:54;;;;;;;9.27;1.42;;;;;;;17.96;65.92;101810.16;4989823;28;20508;-50
2021/08/26 07:35:19;;;;;;;6.68;1.58;;;;;;;18.24;64.94;101801.25;4978025;28;20299;-52
2021/08/26 07:37:44;;;;;;;4.85;1.30;;;;;;;18.45;65.38;101784.47;5000128;28;20348;-49
2021/08/26 07:40:11;;;;;;;4.15;1.20;;;;;;;18.59;65.78;101782.69;4986133;28;20069;-49
2021/08/26 07:42:37;;;;;;;6.50;1.30;;;;;;;19.29;63.91;101788.38;4982776;28;20054;-50
2021/08/26 07:45:03;;;;;;;6.15;1.10;;;;;;;20.09;60.29;101788.53;4984439;28;20133;-50
2021/08/26 07:47:30;;;;;;;4.75;1.20;;;;;;;20.29;59.72;101788.28;4992619;28;20100;-49
2021/08/26 07:49:56;;;;;;;5.07;1.25;;;;;;;20.93;60.31;101786.56;4984720;28;20087;-49
2021/08/26 07:52:21;;;;;;;7.72;1.20;;;;;;;22.00;54.40;101779.50;4982894;28;20026;-50
2021/08/26 07:54:46;;;;;;;3.47;1.00;;;;;;;22.72;54.92;101776.19;4986649;28;20026;-50
2021/08/26 07:57:12;;;;;;;6.05;1.08;;;;;;;22.45;54.17;101775.00;4978080;28;20053;-48
2021/08/26 07:59:37;;;;;;;4.82;1.15;;;;;;;22.52;52.56;101773.97;4982878;28;20442;-51
2021/08/26 08:02:03;;;;;;;5.00;1.00;;;;;;;22.21;53.47;101776.38;4984720;28;20025;-48
2021/08/26 08:04:28;;;;;;;5.03;1.13;;;;;;;21.74;53.27;101771.97;4982334;28;20140;-48
2021/08/26 08:06:54;;;;;;;9.52;1.10;;;;;;;20.99;53.32;101773.22;4987991;28;20272;-51
2021/08/26 08:09:19;;;;;;;3.90;1.08;;;;;;;20.90;53.61;101770.72;4983631;28;20026;-47
2021/08/26 08:11:44;;;;;;;5.90;1.50;;;;;;;20.80;55.04;101763.78;4988559;28;20030;-47
2021/08/26 08:14:10;;;;;;;4.97;1.25;;;;;;;20.54;57.42;101785.34;4980160;28;20360;-50
2021/08/26 08:16:35;;;;;;;7.28;1.30;;;;;;;20.33;56.39;101772.38;4984282;28;20346;-50
2021/08/26 08:19:01;;;;;;;4.65;1.30;;;;;;;20.22;55.34;101775.13;4982736;28;20045;-48
2021/08/26 08:21:26;;;;;;;3.63;1.13;;;;;;;20.27;56.70;101767.13;4980990;28;20034;-47
2021/08/26 08:23:51;;;;;;;5.40;1.40;;;;;;;20.59;57.19;101778.22;4984680;28;20030;-52
2021/08/26 08:26:18;;;;;;;8.60;1.20;;;;;;;20.43;56.03;101774.00;4985979;28;20441;-50
2021/08/26 08:28:43;;;;;;;7.43;1.20;;;;;;;20.25;57.29;101783.03;4991062;28;20021;-48
2021/08/26 08:31:08;;;;;;;4.05;1.20;;;;;;;19.98;57.87;101786.00;4982944;28;20039;-49
2021/08/26 08:33:35;;;;;;;6.80;1.42;;;;;;;19.65;61.80;101786.31;4986529;28;20036;-48
2021/08/26 08:36:00;;;;;;;5.10;1.50;;;;;;;19.64;61.48;101771.38;4987683;28;20334;-48
2021/08/26 08:38:26;;;;;;;5.60;1.35;;;;;;;19.57;62.52;101778.50;4985064;28;20033;-48
2021/08/26 08:40:51;;;;;;;5.15;1.60;;;;;;;19.66;62.23;101778.38;4987514;28;20042;-49
2021/08/26 08:43:17;;;;;;;5.35;1.70;;;;;;;19.81;62.66;101778.25;4986656;28;20493;-49
2021/08/26 08:45:44;;;;;;;5.53;1.52;;;;;;;19.92;57.76;101778.13;4983200;28;21722;-50
2021/08/26 08:48:09;;;;;;;6.03;1.60;;;;;;;20.06;60.26;101780.63;4983966;28;20084;-47
2021/08/26 08:50:35;;;;;;;5.60;1.77;;;;;;;20.31;58.32;101774.13;4985041;28;20036;-49
2021/08/26 08:53:01;;;;;;;5.32;1.67;;;;;;;20.43;56.44;101776.66;4979901;28;21025;-48
2021/08/26 08:55:26;;;;;;;6.15;1.45;;;;;;;20.92;56.16;101766.25;4984688;28;20117;-48
2021/08/26 08:57:52;;;;;;;6.45;1.67;;;;;;;21.27;56.73;101765.75;4983768;28;20113;-47
2021/08/26 09:00:19;;;;;;;13.18;1.77;;;;;;;21.08;56.96;101769.53;4984461;28;20064;-50
2021/08/26 09:02:45;;;;;;;7.97;1.95;;;;;;;20.51;58.69;101784.50;4982887;28;20402;-49
2021/08/26 09:05:10;;;;;;;13.10;1.90;;;;;;;20.18;61.14;101776.06;4984938;28;20394;-48
2021/08/26 09:07:36;;;;;;;11.25;2.28;;;;;;;19.89;63.45;101788.72;4984730;28;20100;-47
2021/08/26 09:10:04;;;;;;;7.13;2.08;;;;;;;19.90;63.52;101787.84;4982172;28;20034;-48
2021/08/26 09:12:44;;;;;;;13.85;2.78;;;;;;;19.91;61.51;101776.38;4988344;28;20077;-48
2021/08/26 09:15:29;;;;;;;11.23;2.65;;;;;;;19.77;59.20;101776.50;4983341;28;20109;-52
2021/08/26 09:18:27;;;;;;;12.60;2.22;;;;;;;20.07;58.56;101775.28;4983206;28;20292;-52
2021/08/26 09:21:02;;;;;;;14.35;2.30;;;;;;;20.02;58.58;101784.19;4960667;28;20795;-48
2021/08/26 09:23:33;;;;;;;10.73;2.35;;;;;;;20.28;57.74;101771.53;4979106;28;20070;-51
2021/08/26 09:26:19;;;;;;;9.02;2.17;;;;;;;20.54;57.47;101765.94;5001209;28;20037;-50
2021/08/26 09:28:45;;;;;;;6.82;2.00;;;;;;;20.67;56.69;101778.13;4983178;28;20157;-51
2021/08/26 09:31:22;;;;;;;10.25;2.33;;;;;;;20.39;55.98;101782.00;4987848;28;20244;-47
2021/08/26 09:33:50;;;;;;;8.20;2.20;;;;;;;20.35;57.10;101781.19;4987581;28;20034;-49
2021/08/26 09:36:47;;;;;;;10.15;2.22;;;;;;;20.20;58.37;101776.91;4981290;28;20041;-49
2021/08/26 09:39:15;;;;;;;9.63;2.58;;;;;;;20.20;58.03;101771.63;4982120;28;20449;-48
2021/08/26 09:41:46;;;;;;;7.35;2.47;;;;;;;20.18;59.66;101768.13;4986780;28;20038;-47
2021/08/26 09:44:24;;;;;;;10.85;2.38;;;;;;;20.42;59.16;101766.97;4981220;28;20137;-48
2021/08/26 09:46:51;;;;;;;6.88;2.20;;;;;;;20.62;59.71;101764.91;4983667;28;20500;-48
2021/08/26 09:49:20;;;;;;;11.55;2.45;;;;;;;20.88;58.43;101761.00;4983551;28;20120;-51
2021/08/26 09:52:01;;;;;;;8.18;2.13;;;;;;;21.05;56.03;101761.63;4983804;28;20037;-50
2021/08/26 09:54:37;;;;;;;9.60;2.20;;;;;;;20.77;54.09;101755.88;4979156;28;20112;-47
2021/08/26 09:57:04;;;;;;;9.98;2.38;;;;;;;21.02;56.00;101759.03;4982538;28;20466;-47
2021/08/26 09:59:41;;;;;;;12.35;2.97;;;;;;;20.85;55.22;101767.25;4982846;28;20030;-49
2021/08/26 10:02:07;;;;;;;9.65;2.50;;;;;;;20.73;55.28;101762.13;4982799;28;20053;-46
2021/08/26 10:04:32;;;;;;;13.90;3.00;;;;;;;20.48;55.78;101758.94;4983555;28;20036;-50
2021/08/26 10:06:58;;;;;;;10.40;2.72;;;;;;;20.56;56.92;101764.13;4973029;28;20053;-50
2021/08/26 10:09:23;;;;;;;12.43;2.90;;;;;;;20.62;55.17;101769.34;4984223;28;20576;-49
2021/08/26 10:11:49;;;;;;;12.15;2.97;;;;;;;20.72;55.16;101768.31;4980956;28;20044;-47
2021/08/26 10:14:15;;;;;;;13.02;2.88;;;;;;;20.61;56.48;101764.97;4977547;28;20076;-48
2021/08/26 10:16:41;;;;;;;12.02;3.15;;;;;;;20.75;55.75;101756.78;4981207;28;20165;-47
2021/08/26 10:19:07;;;;;;;14.73;3.33;;;;;;;20.60;57.26;101764.06;4984677;28;20490;-49
2021/08/26 10:21:33;;;;;;;11.55;2.95;;;;;;;20.75;55.86;101755.00;4982871;28;20186;-47
2021/08/26 10:23:58;;;;;;;16.90;3.10;;;;;;;20.87;54.60;101748.66;4985770;28;20565;-46
2021/08/26 10:26:25;;;;;;;11.68;2.95;;;;;;;21.28;54.66;101758.66;4984895;28;21093;-48
2021/08/26 10:28:50;;;;;;;12.15;3.20;;;;;;;21.60;54.41;101758.06;4984685;28;20393;-48
2021/08/26 10:31:30;;;;;;;15.38;3.55;;;;;;;21.69;53.78;101761.44;4979276;28;20053;-47
2021/08/26 10:34:14;;;;;;;15.05;3.50;;;;;;;21.73;54.42;101759.59;4976709;28;20319;-48
2021/08/26 10:36:47;;;;;;;14.05;3.67;;;;;;;21.79;53.76;101749.75;4981392;28;20034;-47
2021/08/26 10:39:37;;;;;;;13.60;3.55;;;;;;;21.94;54.31;101764.53;4985322;28;20502;-47
2021/08/26 10:42:28;;;;;;;15.90;3.60;;;;;;;22.07;54.69;101763.41;4985953;28;20549;-48
2021/08/26 10:45:06;;;;;;;12.95;3.50;;;;;;;21.90;53.67;101773.44;4980968;28;20034;-50
2021/08/26 10:47:50;;;;;;;15.18;3.75;;;;;;;21.91;53.53;101775.19;4985613;28;20104;-47
2021/08/26 10:50:25;;;;;;;;;;;;;;;21.85;54.70;101764.69;4982362;28;20393;-47
2021/08/26 10:53:02;;;;;;;10.60;3.38;;;;;;;21.69;53.25;101764.09;4985156;28;20581;-47
2021/08/26 10:55:27;;;;;;;14.00;3.70;;;;;;;21.20;54.57;101771.16;4978051;28;20022;-49
2021/08/26 10:57:53;;;;;;;14.68;3.67;;;;;;;20.81;56.36;101780.56;4987977;28;20026;-49
2021/08/26 11:00:44;;;;;;;13.15;3.75;;;;;;;21.09;59.58;101779.25;4984060;28;20041;-48
2021/08/26 11:03:11;;;;;;;19.45;3.80;;;;;;;21.16;58.60;101780.06;4979277;28;20030;-47
2021/08/26 11:05:39;;;;;;;13.75;3.47;;;;;;;20.88;55.23;101774.28;4982105;28;20733;-45
2021/08/26 11:08:27;;;;;;;18.17;3.72;;;;;;;21.24;55.02;101776.38;4986662;28;20454;-46
2021/08/26 11:10:55;;;;;;;12.35;3.70;;;;;;;21.50;53.93;101775.06;4983784;28;20026;-48
2021/08/26 11:13:32;;;;;;;15.88;3.47;;;;;;;21.37;54.43;101771.75;4983494;28;20018;-47
2021/08/26 11:16:23;;;;;;;13.90;3.30;;;;;;;21.65;53.99;101770.34;4978692;28;20034;-52
2021/08/26 11:18:52;;;;;;;13.55;3.50;;;;;;;21.78;53.51;101771.88;4981325;28;20478;-47
2021/08/26 11:21:42;;;;;;;11.10;3.30;;;;;;;21.70;55.09;101773.81;4981680;28;20041;-48
2021/08/26 11:24:14;;;;;;;18.02;3.30;;;;;;;21.45;54.51;101772.50;4981608;28;20038;-46
2021/08/26 11:26:45;;;;;;;14.98;3.53;;;;;;;21.39;54.64;101769.97;4979696;28;20499;-54